createdAt,value
2023-04-26T00:00:30.821Z,12.78
2023-04-26T00:01:27.537Z,12.77
2023-04-26T00:02:24.143Z,12.74
2023-04-26T00:03:24.715Z,12.73
2023-04-26T00:04:25.014Z,12.69
2023-04-26T00:05:24.454Z,12.67
2023-04-26T00:06:23.813Z,12.63
2023-04-26T00:07:24.489Z,12.62
2023-04-26T00:08:38.073Z,12.56
2023-04-26T00:09:24.507Z,12.54
2023-04-26T00:10:24.278Z,12.52
2023-04-26T00:11:24.231Z,12.50
2023-04-26T00:12:24.816Z,12.5
2023-04-26T00:13:23.970Z,12.47
2023-04-26T00:14:24.064Z,11
2023-04-26T00:15:24.625Z,0
2023-04-26T00:16:38.031Z,10
2023-04-26T00:17:23.906Z,10
2023-04-26T00:18:24.223Z,7
2023-04-26T00:19:23.620Z,10
2023-04-26T00:20:24.978Z,12.28
2023-04-26T00:21:24.232Z,12.30
2023-04-26T00:22:24.278Z,12.26
2023-04-26T00:23:24.249Z,12.26
2023-04-26T00:24:24.012Z,12.24
2023-04-26T00:25:24.371Z,12.20
2023-04-26T00:26:24.571Z,12.18
2023-04-26T00:27:24.873Z,12.17
2023-04-26T00:28:23.856Z,12.16
2023-04-26T00:29:24.254Z,12.14
2023-04-26T00:30:24.543Z,12.13
2023-04-26T00:31:24.693Z,12.12
2023-04-26T00:32:24.261Z,12.11
2023-04-26T00:33:24.045Z,12.09
2023-04-26T00:34:24.151Z,12.08
2023-04-26T00:35:24.182Z,12.06
2023-04-26T00:36:24.182Z,12.03
2023-04-26T00:37:24.079Z,12.04
2023-04-26T00:38:24.013Z,12.00
2023-04-26T00:39:24.078Z,11.97
2023-04-26T00:40:24.317Z,11.95
2023-04-26T00:41:24.268Z,11.96
2023-04-26T00:42:24.148Z,11.94
2023-04-26T00:43:24.008Z,11.90
2023-04-26T00:44:23.985Z,11.90
2023-04-26T00:45:24.812Z,11.89
2023-04-26T00:46:24.733Z,11.86
2023-04-26T00:47:24.261Z,11.85
2023-04-26T00:48:24.767Z,11.85
2023-04-26T00:49:24.277Z,11.83
2023-04-26T00:50:24.163Z,11.80
2023-04-26T00:51:24.399Z,11.78
2023-04-26T00:52:24.477Z,11.77
2023-04-26T00:53:24.892Z,11.75
2023-04-26T00:54:24.255Z,11.72
2023-04-26T00:55:24.384Z,11.71
2023-04-26T00:56:24.861Z,11.69
2023-04-26T00:57:24.288Z,11.67
2023-04-26T00:58:24.595Z,11.66
2023-04-26T00:59:24.244Z,11.67
2023-04-26T01:00:26.101Z,11.63
2023-04-26T01:01:24.382Z,11.61
2023-04-26T01:02:24.994Z,11.58
2023-04-26T01:03:24.598Z,11.57
2023-04-26T01:04:24.746Z,11.53
2023-04-26T01:05:24.898Z,11.53
2023-04-26T01:06:24.297Z,11.52
2023-04-26T01:07:24.453Z,11.52
2023-04-26T01:08:24.350Z,11.46
2023-04-26T01:09:24.840Z,11.44
2023-04-26T01:10:25.376Z,11.44
2023-04-26T01:11:24.442Z,11.43
2023-04-26T01:12:24.594Z,11.41
2023-04-26T01:13:24.714Z,11.42
2023-04-26T01:14:24.187Z,11.40
2023-04-26T01:15:24.085Z,11.39
2023-04-26T01:16:24.549Z,11.35
2023-04-26T01:17:24.624Z,11.35
2023-04-26T01:18:24.093Z,11.32
2023-04-26T01:19:23.841Z,11.31
2023-04-26T01:20:24.055Z,11.26
2023-04-26T01:21:24.335Z,11.25
2023-04-26T01:22:24.463Z,11.23
2023-04-26T01:23:24.307Z,11.22
2023-04-26T01:24:24.321Z,11.17
2023-04-26T01:25:24.264Z,11.16
2023-04-26T01:26:24.560Z,11.16
2023-04-26T01:27:24.741Z,11.15
2023-04-26T01:28:24.430Z,11.14
2023-04-26T01:29:24.403Z,11.14
2023-04-26T01:30:24.702Z,11.14
2023-04-26T01:31:23.902Z,11.12
2023-04-26T01:32:25.119Z,11.09
2023-04-26T01:33:24.265Z,11.08
2023-04-26T01:34:24.287Z,11.06
2023-04-26T01:35:24.946Z,11.06
2023-04-26T01:36:24.603Z,11.03
2023-04-26T01:37:24.456Z,11.02
2023-04-26T01:38:24.499Z,11.01
2023-04-26T01:39:24.494Z,11.02
2023-04-26T01:40:24.307Z,10.99
2023-04-26T01:41:24.524Z,11
2023-04-26T01:42:24.681Z,10.98
2023-04-26T01:43:24.435Z,10.95
2023-04-26T01:44:24.378Z,10.93
2023-04-26T01:45:24.669Z,10.92
2023-04-26T01:46:25.005Z,10.91
2023-04-26T01:47:24.720Z,10.89
2023-04-26T01:48:24.145Z,10.83
2023-04-26T01:49:24.297Z,10.82
2023-04-26T01:50:24.683Z,10.80
2023-04-26T01:51:23.616Z,10.76
2023-04-26T01:52:25.081Z,10.74
2023-04-26T01:53:24.331Z,10.73
2023-04-26T01:54:24.697Z,10.73
2023-04-26T01:55:23.955Z,10.70
2023-04-26T01:56:24.645Z,10.69
2023-04-26T01:57:24.209Z,10.65
2023-04-26T01:58:24.744Z,10.63
2023-04-26T01:59:24.146Z,10.60
2023-04-26T02:00:25.801Z,10.59
2023-04-26T02:01:24.362Z,10.60
2023-04-26T02:02:24.356Z,10.58
2023-04-26T02:03:24.372Z,10.57
2023-04-26T02:04:24.445Z,10.56
2023-04-26T02:05:24.594Z,10.55
2023-04-26T02:06:24.051Z,10.53
2023-04-26T02:07:24.381Z,10.52
2023-04-26T02:08:24.489Z,10.51
2023-04-26T02:09:24.704Z,10.52
2023-04-26T02:10:24.740Z,10.51
2023-04-26T02:11:24.049Z,10.5
2023-04-26T02:12:24.004Z,10.50
2023-04-26T02:13:23.938Z,10.49
2023-04-26T02:14:24.470Z,10.48
2023-04-26T02:15:24.922Z,10.47
2023-04-26T02:16:24.400Z,10.48
2023-04-26T02:17:24.146Z,10.45
2023-04-26T02:18:24.614Z,10.43
2023-04-26T02:19:24.258Z,10.39
2023-04-26T02:20:24.792Z,10.36
2023-04-26T02:21:23.814Z,10.34
2023-04-26T02:22:23.987Z,10.30
2023-04-26T02:23:24.261Z,10.27
2023-04-26T02:24:24.589Z,10.25
2023-04-26T02:25:24.562Z,10.23
2023-04-26T02:26:24.518Z,10.20
2023-04-26T02:27:32.260Z,10.18
2023-04-26T02:28:23.714Z,10.19
2023-04-26T02:29:36.358Z,10.18
2023-04-26T02:30:24.532Z,10.16
2023-04-26T02:31:24.564Z,10.15
2023-04-26T02:32:23.942Z,10.11
2023-04-26T02:33:24.158Z,10.07
2023-04-26T02:34:24.027Z,10.06
2023-04-26T02:35:24.033Z,10.05
2023-04-26T02:36:24.549Z,10.02
2023-04-26T02:37:24.689Z,10.00
2023-04-26T02:38:24.152Z,9.994
2023-04-26T02:39:24.125Z,9.979
2023-04-26T02:40:24.401Z,9.970
2023-04-26T02:41:24.524Z,9.960
2023-04-26T02:42:23.932Z,9.965
2023-04-26T02:43:24.321Z,9.970
2023-04-26T02:44:23.993Z,9.965
2023-04-26T02:45:24.511Z,9.954
2023-04-26T02:46:24.871Z,9.960
2023-04-26T02:47:23.854Z,9.970
2023-04-26T02:48:24.525Z,9.979
2023-04-26T02:49:24.239Z,9.994
2023-04-26T02:50:24.395Z,9.984
2023-04-26T02:51:24.479Z,10.01
2023-04-26T02:52:24.168Z,10.00
2023-04-26T02:53:24.262Z,9.965
2023-04-26T02:54:24.141Z,9.954
2023-04-26T02:55:23.869Z,9.939
2023-04-26T02:56:24.040Z,9.939
2023-04-26T02:57:24.601Z,9.909
2023-04-26T02:58:24.719Z,9.878
2023-04-26T02:59:24.140Z,9.850
2023-04-26T03:00:25.445Z,9.833
2023-04-26T03:01:24.700Z,9.805
2023-04-26T03:02:24.828Z,9.779
2023-04-26T03:03:24.519Z,9.739
2023-04-26T03:04:24.418Z,9.725
2023-04-26T03:05:24.629Z,9.699
2023-04-26T03:06:24.045Z,9.671
2023-04-26T03:07:23.994Z,9.684
2023-04-26T03:08:24.344Z,9.659
2023-04-26T03:09:24.267Z,9.654
2023-04-26T03:10:24.269Z,9.684
2023-04-26T03:11:24.296Z,9.663
2023-04-26T03:12:24.148Z,9.642
2023-04-26T03:13:24.294Z,9.640
2023-04-26T03:14:24.759Z,9.626
2023-04-26T03:15:24.123Z,9.614
2023-04-26T03:16:24.380Z,9.595
2023-04-26T03:17:24.229Z,9.576
2023-04-26T03:18:24.756Z,9.564
2023-04-26T03:19:24.064Z,9.524
2023-04-26T03:20:24.523Z,9.510
2023-04-26T03:21:24.528Z,9.5
2023-04-26T03:22:24.610Z,9.5
2023-04-26T03:23:24.382Z,9.505
2023-04-26T03:24:24.144Z,9.479
2023-04-26T03:25:24.839Z,9.479
2023-04-26T03:26:24.273Z,9.454
2023-04-26T03:27:24.396Z,9.449
2023-04-26T03:28:24.560Z,9.460
2023-04-26T03:29:24.160Z,9.460
2023-04-26T03:30:24.864Z,9.425
2023-04-26T03:31:24.380Z,9.399
2023-04-26T03:32:24.873Z,9.379
2023-04-26T03:33:24.055Z,9.388
2023-04-26T03:34:24.368Z,9.361
2023-04-26T03:35:24.606Z,9.366
2023-04-26T03:36:24.261Z,9.355
2023-04-26T03:37:24.209Z,9.321
2023-04-26T03:38:24.172Z,9.305
2023-04-26T03:39:24.497Z,9.284
2023-04-26T03:40:24.618Z,9.270
2023-04-26T03:41:24.387Z,9.265
2023-04-26T03:42:24.806Z,9.255
2023-04-26T03:43:24.214Z,9.260
2023-04-26T03:44:24.702Z,9.274
2023-04-26T03:45:24.693Z,9.270
2023-04-26T03:46:24.345Z,9.300
2023-04-26T03:47:24.181Z,9.300
2023-04-26T03:48:24.509Z,9.305
2023-04-26T03:49:24.518Z,9.260
2023-04-26T03:50:24.536Z,9.265
2023-04-26T03:51:23.703Z,9.25
2023-04-26T03:52:24.259Z,9.229
2023-04-26T03:53:24.139Z,9.215
2023-04-26T03:54:24.161Z,9.220
2023-04-26T03:55:24.638Z,9.194
2023-04-26T03:56:24.312Z,9.199
2023-04-26T03:57:24.688Z,9.178
2023-04-26T03:58:24.075Z,9.178
2023-04-26T03:59:24.566Z,9.171
2023-04-26T04:00:25.023Z,9.142
2023-04-26T04:01:24.248Z,9.131
2023-04-26T04:02:25.180Z,9.120
2023-04-26T04:03:24.856Z,9.100
2023-04-26T04:04:24.727Z,9.079
2023-04-26T04:05:25.167Z,9.069
2023-04-26T04:06:24.422Z,9.074
2023-04-26T04:07:24.334Z,9.100
2023-04-26T04:08:24.755Z,9.090
2023-04-26T04:09:24.533Z,9.064
2023-04-26T04:10:24.641Z,9.039
2023-04-26T04:11:24.609Z,9.045
2023-04-26T04:12:24.542Z,9.045
2023-04-26T04:13:24.949Z,9.029
2023-04-26T04:14:24.860Z,9.024
2023-04-26T04:15:25.660Z,9.010
2023-04-26T04:16:24.469Z,9.005
2023-04-26T04:17:24.432Z,8.989
2023-04-26T04:18:24.440Z,8.989
2023-04-26T04:19:24.655Z,8.979
2023-04-26T04:20:24.450Z,8.989
2023-04-26T04:21:23.957Z,8.984
2023-04-26T04:22:24.274Z,8.949
2023-04-26T04:23:24.776Z,8.954
2023-04-26T04:24:24.604Z,8.954
2023-04-26T04:25:24.995Z,8.949
2023-04-26T04:26:24.123Z,8.928
2023-04-26T04:27:24.640Z,8.930
2023-04-26T04:28:24.672Z,8.930
2023-04-26T04:29:24.248Z,8.949
2023-04-26T04:30:24.845Z,8.954
2023-04-26T04:31:24.676Z,8.949
2023-04-26T04:32:24.312Z,8.956
2023-04-26T04:33:24.764Z,8.960
2023-04-26T04:34:24.028Z,8.958
2023-04-26T04:35:25.284Z,8.972
2023-04-26T04:36:24.494Z,8.975
2023-04-26T04:37:24.327Z,8.979
2023-04-26T04:38:24.589Z,8.994
2023-04-26T04:39:24.377Z,8.984
2023-04-26T04:40:24.641Z,8.965
2023-04-26T04:41:24.262Z,8.975
2023-04-26T04:42:24.760Z,8.965
2023-04-26T04:43:24.714Z,8.975
2023-04-26T04:44:24.390Z,8.949
2023-04-26T04:45:24.510Z,8.949
2023-04-26T04:46:24.752Z,8.984
2023-04-26T04:47:24.712Z,8.984
2023-04-26T04:48:24.633Z,8.989
2023-04-26T04:49:24.571Z,9
2023-04-26T04:50:32.751Z,9.005
2023-04-26T04:51:24.422Z,9.045
2023-04-26T04:52:32.993Z,9.064
2023-04-26T04:53:24.744Z,9.074
2023-04-26T04:54:24.304Z,9.095
2023-04-26T04:55:24.194Z,9.100
2023-04-26T04:56:24.432Z,9.137
2023-04-26T04:57:24.513Z,9.131
2023-04-26T04:58:24.819Z,9.149
2023-04-26T04:59:24.749Z,9.199
2023-04-26T05:00:40.275Z,9.199
2023-04-26T05:01:25.167Z,9.239
2023-04-26T05:02:24.997Z,9.265
2023-04-26T05:03:24.768Z,9.295
2023-04-26T05:04:25.022Z,9.361
2023-04-26T05:05:24.428Z,9.394
2023-04-26T05:06:24.173Z,9.444
2023-04-26T05:07:24.819Z,9.515
2023-04-26T05:08:24.938Z,9.560
2023-04-26T05:09:24.987Z,9.611
2023-04-26T05:10:25.292Z,9.684
2023-04-26T05:11:24.926Z,9.739
2023-04-26T05:12:24.834Z,9.821
2023-04-26T05:13:24.687Z,9.925
2023-04-26T05:14:24.514Z,9.984
2023-04-26T05:15:24.382Z,10.06
2023-04-26T05:16:24.800Z,10.15
2023-04-26T05:17:25.106Z,10.24
2023-04-26T05:18:25.275Z,10.33
2023-04-26T05:19:24.815Z,10.44
2023-04-26T05:20:25.260Z,10.53
2023-04-26T05:21:24.730Z,10.63
2023-04-26T05:22:25.190Z,10.72
2023-04-26T05:23:25.129Z,10.80
2023-04-26T05:24:25.090Z,10.88
2023-04-26T05:25:25.348Z,10.96
2023-04-26T05:26:24.251Z,11.03
2023-04-26T05:27:24.867Z,11.12
2023-04-26T05:28:24.709Z,11.21
2023-04-26T05:29:24.629Z,11.27
2023-04-26T05:30:24.992Z,11.36
2023-04-26T05:31:24.722Z,11.46
2023-04-26T05:32:24.381Z,11.56
2023-04-26T05:33:24.553Z,11.64
2023-04-26T05:34:24.517Z,11.71
2023-04-26T05:35:24.836Z,11.77
2023-04-26T05:36:25.207Z,11.80
2023-04-26T05:37:24.399Z,11.83
2023-04-26T05:38:24.579Z,11.89
2023-04-26T05:39:24.553Z,11.92
2023-04-26T05:40:24.738Z,11.96
2023-04-26T05:41:24.923Z,11.95
2023-04-26T05:42:24.683Z,11.99
2023-04-26T05:43:24.671Z,12
2023-04-26T05:44:24.511Z,12.01
2023-04-26T05:45:25.033Z,11.99
2023-04-26T05:46:24.897Z,12
2023-04-26T05:47:24.924Z,12.02
2023-04-26T05:48:25.525Z,12.01
2023-04-26T05:49:25.796Z,12.06
2023-04-26T05:50:24.408Z,12.09
2023-04-26T05:51:24.454Z,12.13
2023-04-26T05:52:24.742Z,12.15
2023-04-26T05:53:24.416Z,12.21
2023-04-26T05:54:24.880Z,12.25
2023-04-26T05:55:24.992Z,12.27
2023-04-26T05:56:24.744Z,12.30
2023-04-26T05:57:24.759Z,12.37
2023-04-26T05:58:25.083Z,12.45
2023-04-26T05:59:24.693Z,12.47
2023-04-26T06:00:25.870Z,12.53
2023-04-26T06:01:24.182Z,12.60
2023-04-26T06:02:24.939Z,12.67
2023-04-26T06:03:24.316Z,12.76
2023-04-26T06:04:24.910Z,12.83
2023-04-26T06:05:24.414Z,12.92
2023-04-26T06:06:24.750Z,13.00
2023-04-26T06:07:24.764Z,13.10
2023-04-26T06:08:24.853Z,13.20
2023-04-26T06:09:24.761Z,13.30
2023-04-26T06:10:25.350Z,13.42
2023-04-26T06:11:25.038Z,13.52
2023-04-26T06:12:24.864Z,13.63
2023-04-26T06:13:25.129Z,13.77
2023-04-26T06:15:24.901Z,14.03
2023-04-26T06:16:24.727Z,14.14
2023-04-26T06:17:24.911Z,14.22
2023-04-26T06:18:24.449Z,14.30
2023-04-26T06:19:25.465Z,14.40
2023-04-26T06:20:24.681Z,14.49
2023-04-26T06:21:24.285Z,14.57
2023-04-26T06:22:24.825Z,14.67
2023-04-26T06:23:24.479Z,14.76
2023-04-26T06:24:24.898Z,14.78
2023-04-26T06:25:24.286Z,14.83
2023-04-26T06:26:24.776Z,14.93
2023-04-26T06:27:24.620Z,15.02
2023-04-26T06:28:24.778Z,15.07
2023-04-26T06:29:24.922Z,15.18
2023-04-26T06:30:25.074Z,15.27
2023-04-26T06:31:25.371Z,15.31
2023-04-26T06:32:24.877Z,15.37
2023-04-26T06:33:24.322Z,15.40
2023-04-26T06:34:24.842Z,15.44
2023-04-26T06:35:24.726Z,15.45
2023-04-26T06:36:24.365Z,15.43
2023-04-26T06:37:24.420Z,15.45
2023-04-26T06:38:25.089Z,15.46
2023-04-26T06:39:24.577Z,15.46
2023-04-26T06:40:24.562Z,15.46
2023-04-26T06:41:24.309Z,15.49
2023-04-26T06:42:25.100Z,15.5
2023-04-26T06:43:25.238Z,15.53
2023-04-26T06:44:24.518Z,15.53
2023-04-26T06:45:25.872Z,15.56
2023-04-26T06:46:25.651Z,15.57
2023-04-26T06:47:24.671Z,15.62
2023-04-26T06:48:24.416Z,15.61
2023-04-26T06:49:24.675Z,15.63
2023-04-26T06:50:24.331Z,15.63
2023-04-26T06:51:25.154Z,15.63
2023-04-26T06:52:24.275Z,15.67
2023-04-26T06:53:24.755Z,15.65
2023-04-26T06:54:25.275Z,15.64
2023-04-26T06:55:25.722Z,15.64
2023-04-26T06:56:24.943Z,15.66
2023-04-26T06:57:25.150Z,15.68
2023-04-26T06:58:25.180Z,15.72
2023-04-26T06:59:25.100Z,15.75
2023-04-26T07:00:26.043Z,15.78
2023-04-26T07:01:24.981Z,15.81
2023-04-26T07:02:25.489Z,15.86
2023-04-26T07:03:24.761Z,15.90
2023-04-26T07:04:24.891Z,15.94
2023-04-26T07:05:24.232Z,15.96
2023-04-26T07:06:24.606Z,16.01
2023-04-26T07:07:29.511Z,16.05
2023-04-26T07:08:24.692Z,16.10
2023-04-26T07:09:24.550Z,16.11
2023-04-26T07:10:25.003Z,16.13
2023-04-26T07:11:26.034Z,16.14
2023-04-26T07:12:24.079Z,16.13
2023-04-26T07:13:29.920Z,16.15
2023-04-26T07:14:25.683Z,16.20
2023-04-26T07:15:32.930Z,16.19
2023-04-26T07:16:25.014Z,16.19
2023-04-26T07:17:24.797Z,16.20
2023-04-26T07:18:24.771Z,16.20
2023-04-26T07:19:24.594Z,16.22
2023-04-26T07:20:25.016Z,16.22
2023-04-26T07:21:24.778Z,16.26
2023-04-26T07:22:24.262Z,16.28
2023-04-26T07:23:24.945Z,16.29
2023-04-26T07:24:24.891Z,16.28
2023-04-26T07:25:24.691Z,16.26
2023-04-26T07:26:24.635Z,16.28
2023-04-26T07:27:24.693Z,16.30
2023-04-26T07:28:24.857Z,16.34
2023-04-26T07:29:24.832Z,16.37
2023-04-26T07:30:24.941Z,16.40
2023-04-26T07:31:24.908Z,16.45
2023-04-26T07:32:25.452Z,16.52
2023-04-26T07:33:24.952Z,16.55
2023-04-26T07:34:24.933Z,16.57
2023-04-26T07:35:25.028Z,16.55
2023-04-26T07:36:25.308Z,16.62
2023-04-26T07:37:25.073Z,16.63
2023-04-26T07:38:24.527Z,16.65
2023-04-26T07:39:24.713Z,16.64
2023-04-26T07:40:25.084Z,16.65
2023-04-26T07:41:24.586Z,16.64
2023-04-26T07:42:24.937Z,16.60
2023-04-26T07:43:24.841Z,16.59
2023-04-26T07:44:24.931Z,16.60
2023-04-26T07:45:25.238Z,16.64
2023-04-26T07:46:25.175Z,16.73
2023-04-26T07:47:24.789Z,16.76
2023-04-26T07:48:24.468Z,16.73
2023-04-26T07:49:24.701Z,16.73
2023-04-26T07:50:25.001Z,16.73
2023-04-26T07:51:25.708Z,16.74
2023-04-26T07:52:24.731Z,16.79
2023-04-26T07:53:24.641Z,16.85
2023-04-26T07:54:24.354Z,16.90
2023-04-26T07:55:25.083Z,16.96
2023-04-26T07:56:24.620Z,17
2023-04-26T07:57:24.518Z,17.04
2023-04-26T07:58:24.637Z,17.04
2023-04-26T07:59:24.361Z,17.00
2023-04-26T08:00:25.206Z,17.02
2023-04-26T08:01:25.098Z,17.03
2023-04-26T08:02:36.706Z,17.06
2023-04-26T08:03:24.481Z,17.01
2023-04-26T08:04:25.170Z,16.90
2023-04-26T08:05:24.845Z,16.88
2023-04-26T08:06:24.989Z,16.88
2023-04-26T08:07:24.663Z,16.91
2023-04-26T08:08:24.581Z,16.94
2023-04-26T08:09:24.732Z,16.95
2023-04-26T08:10:25.455Z,17.02
2023-04-26T08:11:24.831Z,16.98
2023-04-26T08:12:25.322Z,16.96
2023-04-26T08:13:27.811Z,17.04
2023-04-26T08:14:25.294Z,17.14
2023-04-26T08:15:25.591Z,17.15
2023-04-26T08:16:24.743Z,17.07
2023-04-26T08:17:25.323Z,17.01
2023-04-26T08:18:25.314Z,16.98
2023-04-26T08:19:25.086Z,16.98
2023-04-26T08:20:25.282Z,16.99
2023-04-26T08:21:24.970Z,17.02
2023-04-26T08:22:24.987Z,16.99
2023-04-26T08:23:25.128Z,17.00
2023-04-26T08:24:25.150Z,17.18
2023-04-26T08:25:24.809Z,17.16
2023-04-26T08:26:24.575Z,17.18
2023-04-26T08:27:24.643Z,17.25
2023-04-26T08:28:24.800Z,17.39
2023-04-26T08:29:25.182Z,17.45
2023-04-26T08:30:24.668Z,17.45
2023-04-26T08:31:24.816Z,17.45
2023-04-26T08:32:25.096Z,17.48
2023-04-26T08:33:25.179Z,17.52
2023-04-26T08:34:24.670Z,17.63
2023-04-26T08:35:24.923Z,17.66
2023-04-26T08:36:24.716Z,17.69
2023-04-26T08:37:24.629Z,17.72
2023-04-26T08:38:25.002Z,17.70
2023-04-26T08:39:25.332Z,17.69
2023-04-26T08:40:25.741Z,17.77
2023-04-26T08:41:25.541Z,17.83
2023-04-26T08:42:25.059Z,17.88
2023-04-26T08:43:25.215Z,17.96
2023-04-26T08:44:24.906Z,18.00
2023-04-26T08:45:25.084Z,18.04
2023-04-26T08:46:25.069Z,18.05
2023-04-26T08:47:25.340Z,18.14
2023-04-26T08:48:25.019Z,18.24
2023-04-26T08:49:24.597Z,18.30
2023-04-26T08:50:24.857Z,18.34
2023-04-26T08:51:24.649Z,18.37
2023-04-26T08:52:25.068Z,18.42
2023-04-26T08:53:25.383Z,18.36
2023-04-26T08:54:24.616Z,18.33
2023-04-26T08:55:25.023Z,18.31
2023-04-26T08:56:25.095Z,18.32
2023-04-26T08:57:24.957Z,18.30
2023-04-26T08:58:24.857Z,18.31
2023-04-26T08:59:24.619Z,18.36
2023-04-26T09:00:25.236Z,18.43
2023-04-26T09:01:24.980Z,18.47
2023-04-26T09:02:24.687Z,18.51
2023-04-26T09:03:24.635Z,18.56
2023-04-26T09:04:25.006Z,18.62
2023-04-26T09:05:24.796Z,18.68
2023-04-26T09:06:24.849Z,18.70
2023-04-26T09:07:24.550Z,18.75
2023-04-26T09:08:24.143Z,18.82
2023-04-26T09:09:24.798Z,18.85
2023-04-26T09:10:24.689Z,18.91
2023-04-26T09:11:24.683Z,19.02
2023-04-26T09:12:25.112Z,19.10
2023-04-26T09:13:24.337Z,19.10
2023-04-26T09:14:24.871Z,19.01
2023-04-26T09:15:25.315Z,18.95
2023-04-26T09:16:25.065Z,18.89
2023-04-26T09:17:25.371Z,18.88
2023-04-26T09:18:24.466Z,18.88
2023-04-26T09:19:25.105Z,18.87
2023-04-26T09:20:25.152Z,18.87
2023-04-26T09:21:25.164Z,18.86
2023-04-26T09:22:24.599Z,18.83
2023-04-26T09:23:24.923Z,18.77
2023-04-26T09:24:24.921Z,18.75
2023-04-26T09:25:25.137Z,18.67
2023-04-26T09:26:25.375Z,18.57
2023-04-26T09:27:25.211Z,18.5
2023-04-26T09:28:24.770Z,18.44
2023-04-26T09:29:24.962Z,18.40
2023-04-26T09:30:30.585Z,18.41
2023-04-26T09:31:25.331Z,18.48
2023-04-26T09:32:25.066Z,18.48
2023-04-26T09:33:24.299Z,18.51
2023-04-26T09:34:24.454Z,18.52
2023-04-26T09:35:25.124Z,18.49
2023-04-26T09:36:24.999Z,18.46
2023-04-26T09:37:25.769Z,18.50
2023-04-26T09:38:25.127Z,18.56
2023-04-26T09:39:24.993Z,18.57
2023-04-26T09:40:25.687Z,18.60
2023-04-26T09:41:25.604Z,18.59
2023-04-26T09:42:25.206Z,18.61
2023-04-26T09:43:24.863Z,18.59
2023-04-26T09:44:25.187Z,18.62
2023-04-26T09:45:25.389Z,18.67
2023-04-26T09:46:24.586Z,18.75
2023-04-26T09:47:25.144Z,18.79
2023-04-26T09:48:24.793Z,18.78
2023-04-26T09:49:25.017Z,18.87
2023-04-26T09:50:25.498Z,18.94
2023-04-26T09:51:26.090Z,19.06
2023-04-26T09:52:25.446Z,19.08
2023-04-26T09:53:25.188Z,19.01
2023-04-26T09:54:24.359Z,18.89
2023-04-26T09:55:34.107Z,18.86
2023-04-26T09:56:25.533Z,18.80
2023-04-26T09:57:24.695Z,18.69
2023-04-26T09:58:25.166Z,18.59
2023-04-26T09:59:25.267Z,18.56
2023-04-26T10:00:39.673Z,18.53
2023-04-26T10:01:25.181Z,18.56
2023-04-26T10:02:25.342Z,18.57
2023-04-26T10:03:25.204Z,18.62
2023-04-26T10:04:24.797Z,18.62
2023-04-26T10:05:25.112Z,18.49
2023-04-26T10:06:25.617Z,18.45
2023-04-26T10:07:24.847Z,18.57
2023-04-26T10:08:25.084Z,18.64
2023-04-26T10:09:24.890Z,18.68
2023-04-26T10:10:25.604Z,18.60
2023-04-26T10:11:25.814Z,18.45
2023-04-26T10:12:24.986Z,18.35
2023-04-26T10:13:24.907Z,18.31
2023-04-26T10:14:24.821Z,18.24
2023-04-26T10:15:24.900Z,18.20
2023-04-26T10:16:25.158Z,18.24
2023-04-26T10:17:25.544Z,18.17
2023-04-26T10:18:25.179Z,18.10
2023-04-26T10:19:25.006Z,18.17
2023-04-26T10:20:25.308Z,18.24
2023-04-26T10:21:25.251Z,18.31
2023-04-26T10:22:25.082Z,18.42
2023-04-26T10:23:25.472Z,18.54
2023-04-26T10:24:24.791Z,18.66
2023-04-26T10:25:24.817Z,18.74
2023-04-26T10:26:24.952Z,18.76
2023-04-26T10:27:24.974Z,18.75
2023-04-26T10:28:25.007Z,18.71
2023-04-26T10:29:24.906Z,18.78
2023-04-26T10:30:25.134Z,18.81
2023-04-26T10:31:25.098Z,18.89
2023-04-26T10:32:25.488Z,19
2023-04-26T10:33:25.290Z,19.04
2023-04-26T10:34:25.295Z,19.11
2023-04-26T10:35:24.853Z,19.10
2023-04-26T10:36:25.217Z,19.11
2023-04-26T10:37:24.378Z,19.13
2023-04-26T10:38:24.620Z,19.17
2023-04-26T10:39:24.826Z,19.18
2023-04-26T10:40:25.268Z,19.14
2023-04-26T10:41:25.077Z,19.15
2023-04-26T10:42:25.419Z,19.10
2023-04-26T10:43:26.164Z,19.06
2023-04-26T10:44:24.932Z,19.07
2023-04-26T10:45:25.740Z,19.16
2023-04-26T10:46:25.470Z,19.17
2023-04-26T10:47:25.233Z,19.13
2023-04-26T10:48:24.656Z,19.24
2023-04-26T10:49:26.646Z,19.35
2023-04-26T10:50:25.588Z,19.45
2023-04-26T10:51:23.652Z,19.53
2023-04-26T10:53:30.159Z,19.72
2023-04-26T10:54:24.858Z,19.70
2023-04-26T10:55:25.555Z,19.60
2023-04-26T10:56:24.973Z,19.62
2023-04-26T10:57:25.361Z,19.63
2023-04-26T10:58:24.826Z,19.69
2023-04-26T10:59:39.734Z,19.77
2023-04-26T11:00:27.917Z,19.82
2023-04-26T11:01:24.748Z,19.80
2023-04-26T11:02:25.003Z,19.85
2023-04-26T11:03:25.101Z,19.89
2023-04-26T11:04:25.330Z,19.90
2023-04-26T11:05:25.490Z,19.94
2023-04-26T11:06:24.716Z,19.84
2023-04-26T11:07:24.764Z,19.75
2023-04-26T11:08:24.304Z,19.75
2023-04-26T11:09:24.928Z,19.78
2023-04-26T11:10:25.034Z,19.78
2023-04-26T11:11:25.251Z,19.79
2023-04-26T11:12:24.777Z,19.85
2023-04-26T11:13:24.933Z,19.81
2023-04-26T11:15:30.916Z,19.82
2023-04-26T11:16:25.123Z,19.85
2023-04-26T11:17:25.017Z,20.01
2023-04-26T11:18:25.334Z,20.03
2023-04-26T11:19:25.602Z,19.91
2023-04-26T11:20:26.619Z,19.85
2023-04-26T11:21:26.319Z,19.84
2023-04-26T11:22:25.039Z,19.79
2023-04-26T11:23:24.409Z,19.79
2023-04-26T11:24:25.023Z,19.81
2023-04-26T11:25:24.991Z,19.87
2023-04-26T11:26:25.091Z,19.93
2023-04-26T11:27:24.717Z,20.02
2023-04-26T11:28:25.689Z,20.06
2023-04-26T11:29:24.631Z,20.10
2023-04-26T11:30:25.413Z,20.25
2023-04-26T11:31:25.610Z,20.62
2023-04-26T11:32:25.468Z,20.56
2023-04-26T11:33:25.042Z,20.30
2023-04-26T11:34:24.685Z,20.15
2023-04-26T11:35:25.380Z,20.02
2023-04-26T11:36:24.902Z,19.87
2023-04-26T11:37:25.656Z,19.85
2023-04-26T11:38:25.210Z,19.80
2023-04-26T11:39:25.022Z,19.75
2023-04-26T11:40:25.656Z,19.70
2023-04-26T11:41:24.706Z,19.70
2023-04-26T11:42:24.948Z,19.68
2023-04-26T11:43:25.771Z,19.65
2023-04-26T11:44:24.999Z,19.63
2023-04-26T11:45:25.465Z,19.61
2023-04-26T11:46:25.380Z,19.60
2023-04-26T11:47:24.619Z,19.61
2023-04-26T11:48:25.554Z,19.67
2023-04-26T11:49:25.166Z,19.74
2023-04-26T11:50:24.731Z,19.76
2023-04-26T11:51:24.930Z,19.71
2023-04-26T11:52:25.459Z,19.67
2023-04-26T11:53:24.911Z,19.67
2023-04-26T11:54:25.661Z,19.78
2023-04-26T11:55:30.104Z,19.81
2023-04-26T11:56:24.929Z,19.75
2023-04-26T11:57:30.539Z,19.66
2023-04-26T11:58:24.919Z,19.67
2023-04-26T11:59:25.005Z,19.72
2023-04-26T12:00:26.211Z,19.90
2023-04-26T12:01:30.208Z,19.95
2023-04-26T12:02:25.688Z,19.79
2023-04-26T12:03:30.172Z,19.77
2023-04-26T12:04:26.991Z,19.74
2023-04-26T12:05:25.502Z,19.73
2023-04-26T12:06:24.881Z,19.72
2023-04-26T12:07:25.282Z,19.87
2023-04-26T12:08:25.179Z,19.95
2023-04-26T12:09:25.521Z,19.95
2023-04-26T12:10:25.247Z,20.05
2023-04-26T12:11:25.489Z,20.39
2023-04-26T12:12:26.078Z,20.39
2023-04-26T12:13:25.423Z,20.39
2023-04-26T12:14:25.339Z,20.29
2023-04-26T12:15:25.706Z,20.18
2023-04-26T12:16:27.106Z,20.17
2023-04-26T12:17:25.626Z,20.09
2023-04-26T12:18:25.724Z,20.11
2023-04-26T12:19:25.488Z,20.12
2023-04-26T12:20:25.217Z,20.13
2023-04-26T12:21:25.625Z,20.21
2023-04-26T12:22:25.242Z,20.23
2023-04-26T12:23:24.452Z,20.30
2023-04-26T12:24:25.428Z,20.33
2023-04-26T12:25:39.271Z,20.39
2023-04-26T12:26:24.522Z,20.36
2023-04-26T12:27:24.669Z,20.36
2023-04-26T12:28:25.529Z,20.37
2023-04-26T12:29:25.640Z,20.32
2023-04-26T12:30:25.499Z,20.32
2023-04-26T12:31:25.433Z,20.27
2023-04-26T12:32:25.320Z,20.20
2023-04-26T12:33:43.741Z,20.12
2023-04-26T12:34:25.174Z,20.10
2023-04-26T12:35:24.931Z,20.07
2023-04-26T12:36:24.867Z,20.12
2023-04-26T12:37:25.139Z,20.29
2023-04-26T12:38:25.666Z,20.29
2023-04-26T12:39:25.414Z,20.36
2023-04-26T12:40:25.916Z,20.48
2023-04-26T12:41:25.124Z,20.52
2023-04-26T12:42:24.408Z,20.55
2023-04-26T12:43:25.543Z,20.59
2023-04-26T12:44:24.849Z,20.63
2023-04-26T12:45:25.700Z,20.71
2023-04-26T12:46:25.808Z,20.78
2023-04-26T12:47:25.279Z,20.91
2023-04-26T12:48:25.539Z,20.92
2023-04-26T12:49:25.546Z,20.92
2023-04-26T12:50:25.930Z,21
2023-04-26T12:51:25.011Z,21.04
2023-04-26T12:52:25.539Z,21.10
2023-04-26T12:53:26.097Z,21.13
2023-04-26T12:54:25.674Z,21.12
2023-04-26T12:55:25.768Z,21.10
2023-04-26T12:56:26.152Z,21.18
2023-04-26T12:57:25.700Z,21.34